sensor_id;sensor_type;location;lat;lon;timestamp;temperature;humidity
58568;DHT22;44354;46.192;-1.076;2022-07-29T00:02:03;18.80;99.90
58568;DHT22;44354;46.192;-1.076;2022-07-29T00:04:29;18.80;99.90
58568;DHT22;44354;46.192;-1.076;2022-07-29T00:06:54;18.70;99.90
58568;DHT22;44354;46.192;-1.076;2022-07-29T00:09:20;18.70;99.90
58568;DHT22;44354;46.192;-1.076;2022-07-29T00:11:46;18.70;99.90
58568;DHT22;44354;46.192;-1.076;2022-07-29T00:14:11;18.50;99.90
58568;DHT22;44354;46.192;-1.076;2022-07-29T00:16:37;18.50;99.90
58568;DHT22;44354;46.192;-1.076;2022-07-29T00:19:03;18.40;99.90
58568;DHT22;44354;46.192;-1.076;2022-07-29T00:21:29;18.40;99.90
58568;DHT22;44354;46.192;-1.076;2022-07-29T00:23:54;18.30;1.00
58568;DHT22;44354;46.192;-1.076;2022-07-29T00:26:20;18.30;1.00
58568;DHT22;44354;46.192;-1.076;2022-07-29T00:28:46;18.30;1.00
58568;DHT22;44354;46.192;-1.076;2022-07-29T00:31:12;18.20;99.90
58568;DHT22;44354;46.192;-1.076;2022-07-29T00:33:38;18.00;1.00
58568;DHT22;44354;46.192;-1.076;2022-07-29T00:36:04;17.80;1.00
58568;DHT22;44354;46.192;-1.076;2022-07-29T00:38:29;17.80;1.00
58568;DHT22;44354;46.192;-1.076;2022-07-29T00:40:55;17.80;1.00
58568;DHT22;44354;46.192;-1.076;2022-07-29T00:43:20;17.90;1.00
58568;DHT22;44354;46.192;-1.076;2022-07-29T00:45:46;18.00;1.00
58568;DHT22;44354;46.192;-1.076;2022-07-29T00:48:12;18.10;1.00
58568;DHT22;44354;46.192;-1.076;2022-07-29T00:50:38;18.10;4.40
58568;DHT22;44354;46.192;-1.076;2022-07-29T00:53:06;18.20;44.20
58568;DHT22;44354;46.192;-1.076;2022-07-29T00:55:32;18.30;86.70
58568;DHT22;44354;46.192;-1.076;2022-07-29T00:57:59;18.40;99.90
58568;DHT22;44354;46.192;-1.076;2022-07-29T01:00:27;18.40;99.90
58568;DHT22;44354;46.192;-1.076;2022-07-29T01:02:53;18.40;99.90
58568;DHT22;44354;46.192;-1.076;2022-07-29T01:05:20;18.50;99.90
58568;DHT22;44354;46.192;-1.076;2022-07-29T01:07:51;18.50;99.90
58568;DHT22;44354;46.192;-1.076;2022-07-29T01:10:19;18.50;99.90
58568;DHT22;44354;46.192;-1.076;2022-07-29T01:12:48;18.50;76.00
58568;DHT22;44354;46.192;-1.076;2022-07-29T01:15:14;18.50;50.20
58568;DHT22;44354;46.192;-1.076;2022-07-29T01:20:25;18.60;29.50
58568;DHT22;44354;46.192;-1.076;2022-07-29T01:28:47;18.60;16.90
58568;DHT22;44354;46.192;-1.076;2022-07-29T01:30:53;18.50;13.00
58568;DHT22;44354;46.192;-1.076;2022-07-29T01:33:21;18.50;1.00
58568;DHT22;44354;46.192;-1.076;2022-07-29T01:36:13;18.50;1.00
58568;DHT22;44354;46.192;-1.076;2022-07-29T01:38:42;18.50;1.00
58568;DHT22;44354;46.192;-1.076;2022-07-29T01:41:16;18.50;1.00
58568;DHT22;44354;46.192;-1.076;2022-07-29T01:43:56;18.50;1.00
58568;DHT22;44354;46.192;-1.076;2022-07-29T01:46:29;18.50;1.00
58568;DHT22;44354;46.192;-1.076;2022-07-29T01:49:02;18.50;1.00
58568;DHT22;44354;46.192;-1.076;2022-07-29T01:51:51;18.60;1.00
58568;DHT22;44354;46.192;-1.076;2022-07-29T01:56:53;18.50;1.00
58568;DHT22;44354;46.192;-1.076;2022-07-29T01:59:21;18.50;1.00
58568;DHT22;44354;46.192;-1.076;2022-07-29T02:01:48;18.50;1.00
58568;DHT22;44354;46.192;-1.076;2022-07-29T02:04:15;18.50;1.00
58568;DHT22;44354;46.192;-1.076;2022-07-29T02:06:43;18.60;1.00
58568;DHT22;44354;46.192;-1.076;2022-07-29T02:09:12;18.50;1.00
58568;DHT22;44354;46.192;-1.076;2022-07-29T02:11:38;18.50;1.00
58568;DHT22;44354;46.192;-1.076;2022-07-29T02:14:05;18.50;1.00
58568;DHT22;44354;46.192;-1.076;2022-07-29T02:16:33;18.50;1.00
58568;DHT22;44354;46.192;-1.076;2022-07-29T02:19:01;18.50;1.00
58568;DHT22;44354;46.192;-1.076;2022-07-29T02:21:28;18.50;1.00
58568;DHT22;44354;46.192;-1.076;2022-07-29T02:23:56;18.50;1.00
58568;DHT22;44354;46.192;-1.076;2022-07-29T02:26:25;18.50;1.00
58568;DHT22;44354;46.192;-1.076;2022-07-29T02:28:54;18.50;1.00
58568;DHT22;44354;46.192;-1.076;2022-07-29T02:31:25;18.50;1.00
58568;DHT22;44354;46.192;-1.076;2022-07-29T02:33:52;18.50;1.00
58568;DHT22;44354;46.192;-1.076;2022-07-29T02:36:21;18.50;1.00
58568;DHT22;44354;46.192;-1.076;2022-07-29T02:38:48;18.50;1.00
58568;DHT22;44354;46.192;-1.076;2022-07-29T02:41:25;18.50;1.00
58568;DHT22;44354;46.192;-1.076;2022-07-29T02:43:55;18.50;1.00
58568;DHT22;44354;46.192;-1.076;2022-07-29T02:46:27;18.50;1.00
58568;DHT22;44354;46.192;-1.076;2022-07-29T02:49:09;18.50;1.00
58568;DHT22;44354;46.192;-1.076;2022-07-29T02:51:55;18.50;1.00
58568;DHT22;44354;46.192;-1.076;2022-07-29T02:56:53;18.50;1.00
58568;DHT22;44354;46.192;-1.076;2022-07-29T02:59:24;18.40;1.00
58568;DHT22;44354;46.192;-1.076;2022-07-29T03:01:52;18.50;1.00
58568;DHT22;44354;46.192;-1.076;2022-07-29T03:04:19;18.50;1.00
58568;DHT22;44354;46.192;-1.076;2022-07-29T03:06:48;18.50;1.00
58568;DHT22;44354;46.192;-1.076;2022-07-29T03:09:15;18.50;99.90
58568;DHT22;44354;46.192;-1.076;2022-07-29T03:11:42;18.40;99.90
58568;DHT22;44354;46.192;-1.076;2022-07-29T03:14:09;18.40;99.90
58568;DHT22;44354;46.192;-1.076;2022-07-29T03:16:36;18.50;99.90
58568;DHT22;44354;46.192;-1.076;2022-07-29T03:19:03;18.40;99.90
58568;DHT22;44354;46.192;-1.076;2022-07-29T03:21:30;18.40;99.90
58568;DHT22;44354;46.192;-1.076;2022-07-29T03:23:55;18.50;99.90
58568;DHT22;44354;46.192;-1.076;2022-07-29T03:26:21;18.50;99.90
58568;DHT22;44354;46.192;-1.076;2022-07-29T03:28:47;18.50;99.90
58568;DHT22;44354;46.192;-1.076;2022-07-29T03:31:12;18.50;99.90
58568;DHT22;44354;46.192;-1.076;2022-07-29T03:33:38;18.40;99.90
58568;DHT22;44354;46.192;-1.076;2022-07-29T03:36:04;18.50;99.90
58568;DHT22;44354;46.192;-1.076;2022-07-29T03:38:30;18.50;99.90
58568;DHT22;44354;46.192;-1.076;2022-07-29T03:41:07;18.50;99.90
58568;DHT22;44354;46.192;-1.076;2022-07-29T03:43:36;18.40;99.90
58568;DHT22;44354;46.192;-1.076;2022-07-29T03:46:05;18.50;99.90
58568;DHT22;44354;46.192;-1.076;2022-07-29T03:48:33;18.50;99.90
58568;DHT22;44354;46.192;-1.076;2022-07-29T03:51:00;18.50;99.90
58568;DHT22;44354;46.192;-1.076;2022-07-29T03:53:26;18.50;99.90
58568;DHT22;44354;46.192;-1.076;2022-07-29T03:55:55;18.40;1.00
58568;DHT22;44354;46.192;-1.076;2022-07-29T03:58:26;18.40;1.00
58568;DHT22;44354;46.192;-1.076;2022-07-29T04:00:54;18.40;99.90
58568;DHT22;44354;46.192;-1.076;2022-07-29T04:03:20;18.40;99.90
58568;DHT22;44354;46.192;-1.076;2022-07-29T04:06:01;18.40;99.90
58568;DHT22;44354;46.192;-1.076;2022-07-29T04:08:27;18.40;99.90
58568;DHT22;44354;46.192;-1.076;2022-07-29T04:10:53;18.50;99.90
58568;DHT22;44354;46.192;-1.076;2022-07-29T04:13:19;18.50;1.00
58568;DHT22;44354;46.192;-1.076;2022-07-29T04:15:45;18.50;1.00
58568;DHT22;44354;46.192;-1.076;2022-07-29T04:18:11;18.50;1.00
58568;DHT22;44354;46.192;-1.076;2022-07-29T04:20:37;18.50;1.00
58568;DHT22;44354;46.192;-1.076;2022-07-29T04:23:02;18.50;1.00
58568;DHT22;44354;46.192;-1.076;2022-07-29T04:25:28;18.50;1.00
58568;DHT22;44354;46.192;-1.076;2022-07-29T04:27:53;18.40;1.00
58568;DHT22;44354;46.192;-1.076;2022-07-29T04:30:29;18.50;1.00
58568;DHT22;44354;46.192;-1.076;2022-07-29T04:32:55;18.50;22.90
58568;DHT22;44354;46.192;-1.076;2022-07-29T04:35:21;18.40;54.40
58568;DHT22;44354;46.192;-1.076;2022-07-29T04:37:47;18.40;77.10
58568;DHT22;44354;46.192;-1.076;2022-07-29T04:40:12;18.40;90.60
58568;DHT22;44354;46.192;-1.076;2022-07-29T04:42:39;18.40;99.90
58568;DHT22;44354;46.192;-1.076;2022-07-29T04:45:05;18.40;99.90
58568;DHT22;44354;46.192;-1.076;2022-07-29T04:47:31;18.30;99.90
58568;DHT22;44354;46.192;-1.076;2022-07-29T04:49:56;18.40;99.90
58568;DHT22;44354;46.192;-1.076;2022-07-29T04:52:22;18.30;99.90
58568;DHT22;44354;46.192;-1.076;2022-07-29T04:54:48;18.30;99.90
58568;DHT22;44354;46.192;-1.076;2022-07-29T04:57:14;18.30;99.90
58568;DHT22;44354;46.192;-1.076;2022-07-29T04:59:40;18.30;99.90
58568;DHT22;44354;46.192;-1.076;2022-07-29T05:02:05;18.30;99.90
58568;DHT22;44354;46.192;-1.076;2022-07-29T05:04:31;18.30;99.90
58568;DHT22;44354;46.192;-1.076;2022-07-29T05:06:57;18.30;99.70
58568;DHT22;44354;46.192;-1.076;2022-07-29T05:09:23;18.30;94.50
58568;DHT22;44354;46.192;-1.076;2022-07-29T05:11:48;18.30;88.60
58568;DHT22;44354;46.192;-1.076;2022-07-29T05:14:15;18.30;64.30
58568;DHT22;44354;46.192;-1.076;2022-07-29T05:16:40;18.30;45.60
58568;DHT22;44354;46.192;-1.076;2022-07-29T05:19:07;18.30;20.70
58568;DHT22;44354;46.192;-1.076;2022-07-29T05:21:32;18.30;1.00
58568;DHT22;44354;46.192;-1.076;2022-07-29T05:23:58;18.30;1.00
58568;DHT22;44354;46.192;-1.076;2022-07-29T05:26:24;18.30;1.00
58568;DHT22;44354;46.192;-1.076;2022-07-29T05:28:49;18.20;1.00
58568;DHT22;44354;46.192;-1.076;2022-07-29T05:31:16;18.30;1.00
58568;DHT22;44354;46.192;-1.076;2022-07-29T05:33:41;18.30;1.00
58568;DHT22;44354;46.192;-1.076;2022-07-29T05:36:07;18.30;1.00
58568;DHT22;44354;46.192;-1.076;2022-07-29T05:38:34;18.40;1.00
58568;DHT22;44354;46.192;-1.076;2022-07-29T05:40:59;18.30;1.00
58568;DHT22;44354;46.192;-1.076;2022-07-29T05:43:27;18.40;1.00
58568;DHT22;44354;46.192;-1.076;2022-07-29T05:45:53;18.40;1.00
58568;DHT22;44354;46.192;-1.076;2022-07-29T05:48:18;18.40;1.00
58568;DHT22;44354;46.192;-1.076;2022-07-29T05:50:44;18.40;1.00
58568;DHT22;44354;46.192;-1.076;2022-07-29T05:53:10;18.40;1.00
58568;DHT22;44354;46.192;-1.076;2022-07-29T05:55:35;18.40;1.00
58568;DHT22;44354;46.192;-1.076;2022-07-29T05:58:01;18.50;1.00
58568;DHT22;44354;46.192;-1.076;2022-07-29T06:00:27;18.50;1.00
58568;DHT22;44354;46.192;-1.076;2022-07-29T06:02:52;18.50;1.00
58568;DHT22;44354;46.192;-1.076;2022-07-29T06:05:18;18.60;1.00
58568;DHT22;44354;46.192;-1.076;2022-07-29T06:07:44;18.60;1.00
58568;DHT22;44354;46.192;-1.076;2022-07-29T06:10:09;18.60;1.00
58568;DHT22;44354;46.192;-1.076;2022-07-29T06:12:36;18.60;1.00
58568;DHT22;44354;46.192;-1.076;2022-07-29T06:15:02;18.70;1.00
58568;DHT22;44354;46.192;-1.076;2022-07-29T06:17:27;18.70;1.00
58568;DHT22;44354;46.192;-1.076;2022-07-29T06:19:53;18.80;1.00
58568;DHT22;44354;46.192;-1.076;2022-07-29T06:22:19;18.80;1.00
58568;DHT22;44354;46.192;-1.076;2022-07-29T06:24:44;18.90;1.00
58568;DHT22;44354;46.192;-1.076;2022-07-29T06:27:10;18.90;1.00
58568;DHT22;44354;46.192;-1.076;2022-07-29T06:29:36;18.90;1.00
58568;DHT22;44354;46.192;-1.076;2022-07-29T06:32:03;18.90;1.00
58568;DHT22;44354;46.192;-1.076;2022-07-29T06:34:29;19.00;1.00
58568;DHT22;44354;46.192;-1.076;2022-07-29T06:36:54;19.00;99.90
58568;DHT22;44354;46.192;-1.076;2022-07-29T06:39:20;19.10;99.90
58568;DHT22;44354;46.192;-1.076;2022-07-29T06:41:47;19.20;99.90
58568;DHT22;44354;46.192;-1.076;2022-07-29T06:44:17;19.30;99.90
58568;DHT22;44354;46.192;-1.076;2022-07-29T06:46:43;19.40;99.90
58568;DHT22;44354;46.192;-1.076;2022-07-29T06:49:09;19.40;99.90
58568;DHT22;44354;46.192;-1.076;2022-07-29T06:51:35;19.50;99.90
58568;DHT22;44354;46.192;-1.076;2022-07-29T06:54:02;19.50;99.90
58568;DHT22;44354;46.192;-1.076;2022-07-29T06:56:31;19.50;99.90
58568;DHT22;44354;46.192;-1.076;2022-07-29T06:58:58;19.50;99.90
58568;DHT22;44354;46.192;-1.076;2022-07-29T07:01:23;19.50;99.90
58568;DHT22;44354;46.192;-1.076;2022-07-29T07:03:49;19.50;99.90
58568;DHT22;44354;46.192;-1.076;2022-07-29T07:06:15;19.50;99.90
58568;DHT22;44354;46.192;-1.076;2022-07-29T07:08:41;19.50;99.90
58568;DHT22;44354;46.192;-1.076;2022-07-29T07:11:06;19.50;99.90
58568;DHT22;44354;46.192;-1.076;2022-07-29T07:13:32;19.50;99.90
58568;DHT22;44354;46.192;-1.076;2022-07-29T07:16:01;19.50;99.90
58568;DHT22;44354;46.192;-1.076;2022-07-29T07:18:27;19.50;99.90
58568;DHT22;44354;46.192;-1.076;2022-07-29T07:20:53;19.60;99.90
58568;DHT22;44354;46.192;-1.076;2022-07-29T07:23:18;19.60;99.90
58568;DHT22;44354;46.192;-1.076;2022-07-29T07:25:44;19.50;99.90
58568;DHT22;44354;46.192;-1.076;2022-07-29T07:28:10;19.60;99.90
58568;DHT22;44354;46.192;-1.076;2022-07-29T07:30:36;19.60;99.90
58568;DHT22;44354;46.192;-1.076;2022-07-29T07:33:03;19.60;99.90
58568;DHT22;44354;46.192;-1.076;2022-07-29T07:35:28;19.70;99.90
58568;DHT22;44354;46.192;-1.076;2022-07-29T07:37:55;19.80;99.90
58568;DHT22;44354;46.192;-1.076;2022-07-29T07:40:21;19.80;99.90
58568;DHT22;44354;46.192;-1.076;2022-07-29T07:42:47;19.90;99.90
58568;DHT22;44354;46.192;-1.076;2022-07-29T07:45:12;19.80;99.90
58568;DHT22;44354;46.192;-1.076;2022-07-29T07:47:39;19.80;99.90
58568;DHT22;44354;46.192;-1.076;2022-07-29T07:50:07;19.70;99.90
58568;DHT22;44354;46.192;-1.076;2022-07-29T07:52:33;19.80;99.90
58568;DHT22;44354;46.192;-1.076;2022-07-29T07:54:59;19.90;99.90
58568;DHT22;44354;46.192;-1.076;2022-07-29T07:57:25;19.90;99.90
58568;DHT22;44354;46.192;-1.076;2022-07-29T07:59:50;20.00;99.90
58568;DHT22;44354;46.192;-1.076;2022-07-29T08:02:16;20.10;99.90
58568;DHT22;44354;46.192;-1.076;2022-07-29T08:04:42;20.10;99.90
58568;DHT22;44354;46.192;-1.076;2022-07-29T08:07:07;20.10;99.90
58568;DHT22;44354;46.192;-1.076;2022-07-29T08:09:34;20.10;99.90
58568;DHT22;44354;46.192;-1.076;2022-07-29T08:12:01;20.10;99.90
58568;DHT22;44354;46.192;-1.076;2022-07-29T08:14:31;20.00;99.90
58568;DHT22;44354;46.192;-1.076;2022-07-29T08:16:57;20.10;99.90
58568;DHT22;44354;46.192;-1.076;2022-07-29T08:19:22;20.20;99.90
58568;DHT22;44354;46.192;-1.076;2022-07-29T08:21:48;20.30;99.90
58568;DHT22;44354;46.192;-1.076;2022-07-29T08:24:14;20.50;99.90
58568;DHT22;44354;46.192;-1.076;2022-07-29T08:26:58;20.70;99.90
58568;DHT22;44354;46.192;-1.076;2022-07-29T08:29:23;20.90;99.90
58568;DHT22;44354;46.192;-1.076;2022-07-29T08:31:49;21.00;99.90
58568;DHT22;44354;46.192;-1.076;2022-07-29T08:34:15;21.30;99.90
58568;DHT22;44354;46.192;-1.076;2022-07-29T08:36:40;21.40;99.90
58568;DHT22;44354;46.192;-1.076;2022-07-29T08:39:06;21.60;99.90
58568;DHT22;44354;46.192;-1.076;2022-07-29T08:41:32;21.80;99.90
58568;DHT22;44354;46.192;-1.076;2022-07-29T08:43:57;21.90;99.90
58568;DHT22;44354;46.192;-1.076;2022-07-29T08:46:23;22.00;99.90
58568;DHT22;44354;46.192;-1.076;2022-07-29T08:48:49;21.80;99.90
58568;DHT22;44354;46.192;-1.076;2022-07-29T08:51:18;21.60;99.90
58568;DHT22;44354;46.192;-1.076;2022-07-29T08:53:46;21.50;99.90
58568;DHT22;44354;46.192;-1.076;2022-07-29T08:56:14;21.70;99.90
58568;DHT22;44354;46.192;-1.076;2022-07-29T08:58:42;22.00;99.90
58568;DHT22;44354;46.192;-1.076;2022-07-29T09:01:09;22.50;99.90
58568;DHT22;44354;46.192;-1.076;2022-07-29T09:03:36;22.20;99.90
58568;DHT22;44354;46.192;-1.076;2022-07-29T09:06:03;22.30;99.90
58568;DHT22;44354;46.192;-1.076;2022-07-29T09:08:32;22.40;99.90
58568;DHT22;44354;46.192;-1.076;2022-07-29T09:10:58;22.40;99.90
58568;DHT22;44354;46.192;-1.076;2022-07-29T09:13:25;22.50;99.90
58568;DHT22;44354;46.192;-1.076;2022-07-29T09:15:51;22.50;99.90
58568;DHT22;44354;46.192;-1.076;2022-07-29T09:18:34;22.40;99.90
58568;DHT22;44354;46.192;-1.076;2022-07-29T09:21:01;22.40;99.90
58568;DHT22;44354;46.192;-1.076;2022-07-29T09:24:05;22.30;99.90
58568;DHT22;44354;46.192;-1.076;2022-07-29T09:26:32;22.30;99.90
58568;DHT22;44354;46.192;-1.076;2022-07-29T09:28:59;22.60;99.90
58568;DHT22;44354;46.192;-1.076;2022-07-29T09:31:33;22.60;99.90
58568;DHT22;44354;46.192;-1.076;2022-07-29T09:34:00;22.30;99.90
58568;DHT22;44354;46.192;-1.076;2022-07-29T09:36:26;22.20;99.90
58568;DHT22;44354;46.192;-1.076;2022-07-29T09:39:01;22.20;99.90
58568;DHT22;44354;46.192;-1.076;2022-07-29T09:41:29;22.40;99.90
58568;DHT22;44354;46.192;-1.076;2022-07-29T09:43:59;22.70;99.90
58568;DHT22;44354;46.192;-1.076;2022-07-29T09:46:25;22.80;99.90
58568;DHT22;44354;46.192;-1.076;2022-07-29T09:49:11;23.10;99.90
58568;DHT22;44354;46.192;-1.076;2022-07-29T09:51:38;23.50;99.90
58568;DHT22;44354;46.192;-1.076;2022-07-29T09:54:24;23.60;99.90
58568;DHT22;44354;46.192;-1.076;2022-07-29T09:56:52;23.50;99.90
58568;DHT22;44354;46.192;-1.076;2022-07-29T09:59:17;23.70;99.90
58568;DHT22;44354;46.192;-1.076;2022-07-29T10:01:45;23.60;99.90
58568;DHT22;44354;46.192;-1.076;2022-07-29T10:04:11;23.60;99.90
58568;DHT22;44354;46.192;-1.076;2022-07-29T10:06:56;23.40;99.90
58568;DHT22;44354;46.192;-1.076;2022-07-29T10:09:22;23.80;99.90
58568;DHT22;44354;46.192;-1.076;2022-07-29T10:12:12;23.90;99.90
58568;DHT22;44354;46.192;-1.076;2022-07-29T10:14:42;23.90;99.90
58568;DHT22;44354;46.192;-1.076;2022-07-29T10:17:09;23.90;99.90
58568;DHT22;44354;46.192;-1.076;2022-07-29T10:19:37;23.90;99.90
58568;DHT22;44354;46.192;-1.076;2022-07-29T10:22:05;23.90;99.90
58568;DHT22;44354;46.192;-1.076;2022-07-29T10:24:32;23.80;99.90
58568;DHT22;44354;46.192;-1.076;2022-07-29T10:27:00;23.80;99.90
58568;DHT22;44354;46.192;-1.076;2022-07-29T10:29:26;24.20;99.90
58568;DHT22;44354;46.192;-1.076;2022-07-29T10:37:27;24.20;96.90
58568;DHT22;44354;46.192;-1.076;2022-07-29T10:40:11;24.10;99.90
58568;DHT22;44354;46.192;-1.076;2022-07-29T10:43:09;24.30;99.90
58568;DHT22;44354;46.192;-1.076;2022-07-29T10:45:40;24.10;93.50
58568;DHT22;44354;46.192;-1.076;2022-07-29T10:48:06;24.10;95.80
58568;DHT22;44354;46.192;-1.076;2022-07-29T10:53:21;24.20;93.10
58568;DHT22;44354;46.192;-1.076;2022-07-29T10:55:47;24.30;94.20
58568;DHT22;44354;46.192;-1.076;2022-07-29T10:58:17;24.10;97.20
58568;DHT22;44354;46.192;-1.076;2022-07-29T11:00:48;24.20;96.70
58568;DHT22;44354;46.192;-1.076;2022-07-29T11:03:46;24.20;93.30
58568;DHT22;44354;46.192;-1.076;2022-07-29T11:06:13;24.20;96.70
58568;DHT22;44354;46.192;-1.076;2022-07-29T11:08:39;24.30;95.90
58568;DHT22;44354;46.192;-1.076;2022-07-29T11:11:35;24.20;92.00
58568;DHT22;44354;46.192;-1.076;2022-07-29T11:14:02;24.30;94.80
58568;DHT22;44354;46.192;-1.076;2022-07-29T11:17:06;24.20;94.50
58568;DHT22;44354;46.192;-1.076;2022-07-29T11:19:33;24.40;93.00
58568;DHT22;44354;46.192;-1.076;2022-07-29T11:21:59;24.70;87.10
58568;DHT22;44354;46.192;-1.076;2022-07-29T11:24:27;24.70;93.20
58568;DHT22;44354;46.192;-1.076;2022-07-29T11:29:57;24.10;99.90
58568;DHT22;44354;46.192;-1.076;2022-07-29T11:32:24;24.30;97.50
58568;DHT22;44354;46.192;-1.076;2022-07-29T11:35:19;24.10;99.90
58568;DHT22;44354;46.192;-1.076;2022-07-29T11:38:23;24.30;99.90
58568;DHT22;44354;46.192;-1.076;2022-07-29T11:43:49;24.20;99.90
58568;DHT22;44354;46.192;-1.076;2022-07-29T11:49:12;24.10;99.90
58568;DHT22;44354;46.192;-1.076;2022-07-29T11:51:38;24.00;99.90
58568;DHT22;44354;46.192;-1.076;2022-07-29T11:54:05;24.00;99.90
58568;DHT22;44354;46.192;-1.076;2022-07-29T11:56:31;24.20;99.90
58568;DHT22;44354;46.192;-1.076;2022-07-29T11:59:07;24.40;99.90
58568;DHT22;44354;46.192;-1.076;2022-07-29T12:01:35;24.70;96.20
58568;DHT22;44354;46.192;-1.076;2022-07-29T12:04:05;24.20;92.30
58568;DHT22;44354;46.192;-1.076;2022-07-29T12:06:32;24.40;95.90
58568;DHT22;44354;46.192;-1.076;2022-07-29T12:08:58;24.70;92.90
58568;DHT22;44354;46.192;-1.076;2022-07-29T12:11:24;24.80;80.20
58568;DHT22;44354;46.192;-1.076;2022-07-29T12:13:51;24.70;72.30
58568;DHT22;44354;46.192;-1.076;2022-07-29T12:16:17;24.60;78.20
58568;DHT22;44354;46.192;-1.076;2022-07-29T12:18:55;24.70;89.60
58568;DHT22;44354;46.192;-1.076;2022-07-29T12:21:21;25.00;65.20
58568;DHT22;44354;46.192;-1.076;2022-07-29T12:23:52;25.10;29.00
58568;DHT22;44354;46.192;-1.076;2022-07-29T12:26:19;25.10;19.10
58568;DHT22;44354;46.192;-1.076;2022-07-29T12:28:44;24.90;39.20
58568;DHT22;44354;46.192;-1.076;2022-07-29T12:31:14;24.70;56.80
58568;DHT22;44354;46.192;-1.076;2022-07-29T12:33:40;24.70;33.60
58568;DHT22;44354;46.192;-1.076;2022-07-29T12:36:06;24.90;34.40
58568;DHT22;44354;46.192;-1.076;2022-07-29T12:38:32;25.10;35.60
58568;DHT22;44354;46.192;-1.076;2022-07-29T12:40:59;25.30;18.90
58568;DHT22;44354;46.192;-1.076;2022-07-29T12:43:25;25.40;14.80
58568;DHT22;44354;46.192;-1.076;2022-07-29T12:45:53;25.50;20.70
58568;DHT22;44354;46.192;-1.076;2022-07-29T12:48:40;25.20;24.90
58568;DHT22;44354;46.192;-1.076;2022-07-29T12:51:07;24.80;16.70
58568;DHT22;44354;46.192;-1.076;2022-07-29T12:53:34;24.50;40.80
58568;DHT22;44354;46.192;-1.076;2022-07-29T12:56:00;24.80;35.80
58568;DHT22;44354;46.192;-1.076;2022-07-29T12:58:37;24.90;40.00
58568;DHT22;44354;46.192;-1.076;2022-07-29T13:03:58;25.30;68.30
58568;DHT22;44354;46.192;-1.076;2022-07-29T13:11:34;25.10;29.40
58568;DHT22;44354;46.192;-1.076;2022-07-29T13:14:01;25.10;56.50
58568;DHT22;44354;46.192;-1.076;2022-07-29T13:16:27;25.10;61.60
58568;DHT22;44354;46.192;-1.076;2022-07-29T13:19:07;25.10;32.40
58568;DHT22;44354;46.192;-1.076;2022-07-29T13:21:33;25.10;28.50
58568;DHT22;44354;46.192;-1.076;2022-07-29T13:23:59;24.90;25.10
58568;DHT22;44354;46.192;-1.076;2022-07-29T13:26:25;24.80;33.00
58568;DHT22;44354;46.192;-1.076;2022-07-29T13:28:51;25.10;22.40
58568;DHT22;44354;46.192;-1.076;2022-07-29T13:31:16;25.10;13.90
58568;DHT22;44354;46.192;-1.076;2022-07-29T13:33:42;25.10;18.00
58568;DHT22;44354;46.192;-1.076;2022-07-29T13:36:07;24.70;14.70
58568;DHT22;44354;46.192;-1.076;2022-07-29T13:38:33;24.90;20.40
58568;DHT22;44354;46.192;-1.076;2022-07-29T13:40:59;25.10;20.00
58568;DHT22;44354;46.192;-1.076;2022-07-29T13:43:25;25.30;16.50
58568;DHT22;44354;46.192;-1.076;2022-07-29T13:45:51;25.30;14.00
58568;DHT22;44354;46.192;-1.076;2022-07-29T13:48:17;25.00;17.30
58568;DHT22;44354;46.192;-1.076;2022-07-29T13:50:43;25.40;14.00
58568;DHT22;44354;46.192;-1.076;2022-07-29T13:53:08;25.50;1.00
58568;DHT22;44354;46.192;-1.076;2022-07-29T13:55:34;25.40;1.00
58568;DHT22;44354;46.192;-1.076;2022-07-29T13:58:00;24.90;3.60
58568;DHT22;44354;46.192;-1.076;2022-07-29T14:00:25;24.90;16.90
58568;DHT22;44354;46.192;-1.076;2022-07-29T14:02:51;25.20;1.00
58568;DHT22;44354;46.192;-1.076;2022-07-29T14:05:17;25.40;1.00
58568;DHT22;44354;46.192;-1.076;2022-07-29T14:07:43;25.00;1.00
58568;DHT22;44354;46.192;-1.076;2022-07-29T14:10:09;25.30;1.00
58568;DHT22;44354;46.192;-1.076;2022-07-29T14:12:35;25.10;1.00
58568;DHT22;44354;46.192;-1.076;2022-07-29T14:15:01;25.30;1.00
58568;DHT22;44354;46.192;-1.076;2022-07-29T14:17:26;25.30;1.00
58568;DHT22;44354;46.192;-1.076;2022-07-29T14:19:52;25.20;1.00
58568;DHT22;44354;46.192;-1.076;2022-07-29T14:22:17;25.10;1.00
58568;DHT22;44354;46.192;-1.076;2022-07-29T14:24:44;25.20;1.00
58568;DHT22;44354;46.192;-1.076;2022-07-29T14:27:10;25.50;1.00
58568;DHT22;44354;46.192;-1.076;2022-07-29T14:29:36;25.50;1.00
58568;DHT22;44354;46.192;-1.076;2022-07-29T14:32:01;25.50;1.00
58568;DHT22;44354;46.192;-1.076;2022-07-29T14:34:27;25.60;1.00
58568;DHT22;44354;46.192;-1.076;2022-07-29T14:36:53;25.50;1.00
58568;DHT22;44354;46.192;-1.076;2022-07-29T14:39:21;25.50;1.00
58568;DHT22;44354;46.192;-1.076;2022-07-29T14:41:48;25.40;1.00
58568;DHT22;44354;46.192;-1.076;2022-07-29T14:44:14;25.30;1.00
58568;DHT22;44354;46.192;-1.076;2022-07-29T14:46:40;25.20;1.00
58568;DHT22;44354;46.192;-1.076;2022-07-29T14:49:05;25.00;1.00
58568;DHT22;44354;46.192;-1.076;2022-07-29T14:51:31;25.10;1.00
58568;DHT22;44354;46.192;-1.076;2022-07-29T14:53:57;25.30;1.00
58568;DHT22;44354;46.192;-1.076;2022-07-29T14:56:23;25.30;1.00
58568;DHT22;44354;46.192;-1.076;2022-07-29T14:58:49;25.40;1.00
58568;DHT22;44354;46.192;-1.076;2022-07-29T15:01:14;25.50;1.00
58568;DHT22;44354;46.192;-1.076;2022-07-29T15:03:40;25.20;1.30
58568;DHT22;44354;46.192;-1.076;2022-07-29T15:06:06;25.30;2.90
58568;DHT22;44354;46.192;-1.076;2022-07-29T15:08:31;25.10;15.70
58568;DHT22;44354;46.192;-1.076;2022-07-29T15:10:57;25.00;26.80
58568;DHT22;44354;46.192;-1.076;2022-07-29T15:13:25;24.80;38.10
58568;DHT22;44354;46.192;-1.076;2022-07-29T15:15:50;24.90;12.80
58568;DHT22;44354;46.192;-1.076;2022-07-29T15:18:16;24.90;26.60
58568;DHT22;44354;46.192;-1.076;2022-07-29T15:20:42;24.90;39.70
58568;DHT22;44354;46.192;-1.076;2022-07-29T15:23:10;24.60;40.20
58568;DHT22;44354;46.192;-1.076;2022-07-29T15:25:38;24.50;52.30
58568;DHT22;44354;46.192;-1.076;2022-07-29T15:28:04;24.60;55.70
58568;DHT22;44354;46.192;-1.076;2022-07-29T15:30:33;24.80;50.90
58568;DHT22;44354;46.192;-1.076;2022-07-29T15:32:59;24.90;58.60
58568;DHT22;44354;46.192;-1.076;2022-07-29T15:35:24;24.50;45.60
58568;DHT22;44354;46.192;-1.076;2022-07-29T15:37:50;24.50;66.90
58568;DHT22;44354;46.192;-1.076;2022-07-29T15:40:16;24.50;70.00
58568;DHT22;44354;46.192;-1.076;2022-07-29T15:42:41;24.40;42.10
58568;DHT22;44354;46.192;-1.076;2022-07-29T15:45:07;24.40;23.40
58568;DHT22;44354;46.192;-1.076;2022-07-29T15:47:35;24.60;53.40
58568;DHT22;44354;46.192;-1.076;2022-07-29T15:50:00;24.40;59.00
58568;DHT22;44354;46.192;-1.076;2022-07-29T15:52:26;24.60;49.30
58568;DHT22;44354;46.192;-1.076;2022-07-29T15:54:53;24.80;75.60
58568;DHT22;44354;46.192;-1.076;2022-07-29T15:57:20;24.60;72.00
58568;DHT22;44354;46.192;-1.076;2022-07-29T15:59:45;24.70;83.90
58568;DHT22;44354;46.192;-1.076;2022-07-29T16:02:11;24.70;83.50
58568;DHT22;44354;46.192;-1.076;2022-07-29T16:04:37;24.70;73.90